Terminal Aerodrome Forecast
Issued by NWS Green Bay, WI

Home | Current Version | Previous Version | Graphics & Text | Print | Product List | Glossary On
Versions: 1 2 3 4 5 6 7 8 9 10 11 12 13 14 15 16 17 18 19 20 21 22 23 24 25 26 27 28 29 30 31 32 33
000
FTUS43 KGRB 312300
TAFGRB
TAF
KGRB 312325Z 0100/0124 02005KT P6SM BKN028
     FM010300 03012G20KT P6SM BKN035
     FM010700 03015G25KT P6SM -SHSN OVC020
      TEMPO 0109/0113 3SM -SN
     FM011300 03014G22KT P6SM -SHSN OVC025
     FM012100 03017G28KT P6SM -SHSN SCT030 BKN060=

USA.gov is the U.S. government's official web portal to all federal, state and local government web resources and services.